createdAt,value
2018-08-06T00:00:03.372Z,17.90
2018-08-06T00:02:31.965Z,17.90
2018-08-06T00:05:00.417Z,17.90
2018-08-06T00:07:28.888Z,17.90
2018-08-06T00:09:57.537Z,17.90
2018-08-06T00:12:25.947Z,17.90
2018-08-06T00:14:54.376Z,17.90
2018-08-06T00:17:22.997Z,17.80
2018-08-06T00:19:51.409Z,17.80
2018-08-06T00:24:48.222Z,17.80
2018-08-06T00:27:16.805Z,17.80
2018-08-06T00:29:45.254Z,17.80
2018-08-06T00:32:13.940Z,17.80
2018-08-06T00:34:42.385Z,17.70
2018-08-06T00:39:39.020Z,17.70
2018-08-06T00:42:07.460Z,17.70
2018-08-06T00:47:05.000Z,17.70
2018-08-06T00:49:33.408Z,17.70
2018-08-06T00:52:01.780Z,17.80
2018-08-06T00:54:30.764Z,17.80
2018-08-06T00:56:59.149Z,17.80
2018-08-06T00:59:27.488Z,17.70
2018-08-06T01:01:56.060Z,17.70
2018-08-06T01:04:24.465Z,17.70
2018-08-06T01:06:52.917Z,17.70
2018-08-06T01:09:21.492Z,17.60
2018-08-06T01:11:49.913Z,17.60
2018-08-06T01:14:18.368Z,17.50
2018-08-06T01:16:46.920Z,17.50
2018-08-06T01:19:15.349Z,17.40
2018-08-06T01:21:43.765Z,17.40
2018-08-06T01:24:12.340Z,17.30
2018-08-06T01:26:40.877Z,17.30
2018-08-06T01:29:09.333Z,17.30
2018-08-06T01:31:38.060Z,17.20
2018-08-06T01:34:06.841Z,17.20
2018-08-06T01:36:35.244Z,17.10
2018-08-06T01:39:05.441Z,17.10
2018-08-06T01:41:33.869Z,17.10
2018-08-06T01:44:02.308Z,17.10
2018-08-06T01:46:30.874Z,17.00
2018-08-06T01:48:59.317Z,17.00
2018-08-06T01:51:27.757Z,17.00
2018-08-06T01:53:56.341Z,16.90
2018-08-06T01:56:24.743Z,16.90
2018-08-06T01:58:53.158Z,16.90
2018-08-06T02:01:21.845Z,16.90
2018-08-06T02:03:50.248Z,16.90
2018-08-06T02:06:18.656Z,16.90
2018-08-06T02:08:47.358Z,16.90
2018-08-06T02:11:15.849Z,16.90
2018-08-06T02:13:44.244Z,16.80
2018-08-06T02:18:40.967Z,16.80
2018-08-06T02:21:09.522Z,16.70
2018-08-06T02:23:38.453Z,16.70
2018-08-06T02:26:07.208Z,16.70
2018-08-06T02:28:35.694Z,16.70
2018-08-06T02:31:04.444Z,16.70
2018-08-06T02:33:32.849Z,16.70
2018-08-06T02:36:01.299Z,16.70
2018-08-06T02:38:29.941Z,16.60
2018-08-06T02:40:58.397Z,16.60
2018-08-06T02:43:26.905Z,16.60
2018-08-06T02:45:55.611Z,16.60
2018-08-06T02:48:24.037Z,16.60
2018-08-06T02:50:52.810Z,16.60
2018-08-06T02:53:21.524Z,16.60
2018-08-06T02:55:49.972Z,16.60
2018-08-06T02:58:18.438Z,16.50
2018-08-06T03:00:47.065Z,16.50
2018-08-06T03:03:15.605Z,16.40
2018-08-06T03:05:44.058Z,16.40
2018-08-06T03:08:12.613Z,16.40
2018-08-06T03:10:41.048Z,16.40
2018-08-06T03:13:09.449Z,16.30
2018-08-06T03:15:38.073Z,16.30
2018-08-06T03:18:07.276Z,16.30
2018-08-06T03:20:35.788Z,16.30
2018-08-06T03:23:04.589Z,16.40
2018-08-06T03:25:33.053Z,16.30
2018-08-06T03:28:01.513Z,16.30
2018-08-06T03:30:30.140Z,16.30
2018-08-06T03:32:58.713Z,16.20
2018-08-06T03:35:27.216Z,16.20
2018-08-06T03:37:55.884Z,16.20
2018-08-06T03:40:24.448Z,16.20
2018-08-06T03:42:52.861Z,16.20
2018-08-06T03:45:21.506Z,16.20
2018-08-06T03:47:49.889Z,16.20
2018-08-06T03:50:18.385Z,16.20
2018-08-06T03:52:47.022Z,16.20
2018-08-06T03:55:15.507Z,16.20
2018-08-06T03:57:43.973Z,16.20
2018-08-06T04:00:13.828Z,16.20
2018-08-06T04:02:42.758Z,16.30
2018-08-06T04:05:13.161Z,16.30
2018-08-06T04:07:41.745Z,16.40
2018-08-06T04:10:11.907Z,16.40
2018-08-06T04:12:40.880Z,16.30
2018-08-06T04:15:09.974Z,16.30
2018-08-06T04:20:08.362Z,16.30
2018-08-06T04:25:05.117Z,16.30
2018-08-06T04:27:33.781Z,16.40
2018-08-06T04:30:02.253Z,16.80
2018-08-06T04:32:30.700Z,17.20
2018-08-06T04:34:59.369Z,17.70
2018-08-06T04:37:27.768Z,18.30
2018-08-06T04:39:56.185Z,18.60
2018-08-06T04:42:24.752Z,19.00
2018-08-06T04:44:53.205Z,19.60
2018-08-06T04:47:21.712Z,20.20
2018-08-06T04:49:50.320Z,20.40
2018-08-06T04:52:18.770Z,20.50
2018-08-06T04:54:47.217Z,21.30
2018-08-06T04:57:15.921Z,22.00
2018-08-06T04:59:44.467Z,22.50
2018-08-06T05:02:12.866Z,22.60
2018-08-06T05:04:41.489Z,23.30
2018-08-06T05:07:10.058Z,23.70
2018-08-06T05:09:40.414Z,24.10
2018-08-06T05:12:09.215Z,24.70
2018-08-06T05:14:39.669Z,25.00
2018-08-06T05:17:09.037Z,24.90
2018-08-06T05:19:38.043Z,24.90
2018-08-06T05:22:07.139Z,25.20
2018-08-06T05:27:04.241Z,25.50
2018-08-06T05:29:32.949Z,25.90
2018-08-06T05:32:01.642Z,26.30
2018-08-06T05:34:30.120Z,26.70
2018-08-06T05:36:58.724Z,27.10
2018-08-06T05:39:27.465Z,26.10
2018-08-06T05:41:55.940Z,26.50
2018-08-06T05:44:24.353Z,27.10
2018-08-06T05:46:53.033Z,27.30
2018-08-06T05:49:21.505Z,27.60
2018-08-06T05:51:49.974Z,28.00
2018-08-06T05:54:18.612Z,28.60
2018-08-06T05:56:47.009Z,29.10
2018-08-06T05:59:15.485Z,29.20
2018-08-06T06:01:44.301Z,28.90
2018-08-06T06:04:12.820Z,28.10
2018-08-06T06:06:41.228Z,29.00
2018-08-06T06:09:10.633Z,29.30
2018-08-06T06:11:39.316Z,28.70
2018-08-06T06:14:08.536Z,28.30
2018-08-06T06:16:37.273Z,27.40
2018-08-06T06:19:06.300Z,27.10
2018-08-06T06:21:34.745Z,26.60
2018-08-06T06:24:03.335Z,26.70
2018-08-06T06:26:31.785Z,26.50
2018-08-06T06:29:00.256Z,27.00
2018-08-06T06:31:28.962Z,27.80
2018-08-06T06:33:57.353Z,28.40
2018-08-06T06:36:25.820Z,27.80
2018-08-06T06:38:54.485Z,27.30
2018-08-06T06:41:22.880Z,27.00
2018-08-06T06:43:51.329Z,26.70
2018-08-06T06:46:19.989Z,26.40
2018-08-06T06:48:48.425Z,26.40
2018-08-06T06:51:16.827Z,26.70
2018-08-06T06:53:45.457Z,27.00
2018-08-06T06:56:13.918Z,27.10
2018-08-06T06:58:42.334Z,27.20
2018-08-06T07:01:11.013Z,27.10
2018-08-06T07:03:39.421Z,27.30
2018-08-06T07:06:07.822Z,27.50
2018-08-06T07:08:36.499Z,27.50
2018-08-06T07:11:04.910Z,27.70
2018-08-06T07:13:33.330Z,27.70
2018-08-06T07:16:01.905Z,28.50
2018-08-06T07:18:30.301Z,28.40
2018-08-06T07:20:58.770Z,28.00
2018-08-06T07:23:27.438Z,27.80
2018-08-06T07:25:55.872Z,27.60
2018-08-06T07:28:24.262Z,27.50
2018-08-06T07:30:53.025Z,27.90
2018-08-06T07:33:21.415Z,27.30
2018-08-06T07:35:49.832Z,26.70
2018-08-06T07:38:18.502Z,27.30
2018-08-06T07:40:47.061Z,27.30
2018-08-06T07:43:15.520Z,26.70
2018-08-06T07:45:44.141Z,26.80
2018-08-06T07:48:12.562Z,27.50
2018-08-06T07:50:40.974Z,27.40
2018-08-06T07:53:09.977Z,26.70
2018-08-06T07:55:38.465Z,26.70
2018-08-06T07:58:06.876Z,27.10
2018-08-06T08:00:35.529Z,27.00
2018-08-06T08:03:04.339Z,26.60
2018-08-06T08:05:32.752Z,26.30
2018-08-06T08:08:01.158Z,26.50
2018-08-06T08:10:29.881Z,26.60
2018-08-06T08:12:58.283Z,26.70
2018-08-06T08:17:56.817Z,26.90
2018-08-06T08:20:25.551Z,27.00
2018-08-06T08:22:54.151Z,26.90
2018-08-06T08:25:23.164Z,27.50
2018-08-06T08:27:51.704Z,27.60
2018-08-06T08:30:20.755Z,27.90
2018-08-06T08:32:49.373Z,28.30
2018-08-06T08:35:18.057Z,28.60
2018-08-06T08:37:46.514Z,28.40
2018-08-06T08:40:18.412Z,28.60
2018-08-06T08:42:46.896Z,28.80
2018-08-06T08:45:16.457Z,28.80
2018-08-06T08:47:45.746Z,28.70
2018-08-06T08:50:16.589Z,28.80
2018-08-06T08:52:45.070Z,29.00
2018-08-06T08:55:14.944Z,29.00
2018-08-06T08:57:43.557Z,28.40
2018-08-06T09:00:18.588Z,28.20
2018-08-06T09:02:48.094Z,28.00
2018-08-06T09:05:17.125Z,28.20
2018-08-06T09:07:45.801Z,28.40
2018-08-06T09:10:15.300Z,28.60
2018-08-06T09:12:43.985Z,28.70
2018-08-06T09:15:17.768Z,29.20
2018-08-06T09:17:46.597Z,29.60
2018-08-06T09:20:14.997Z,29.90
2018-08-06T09:22:44.015Z,30.00
2018-08-06T09:25:13.399Z,30.10
2018-08-06T09:27:43.085Z,29.80
2018-08-06T09:30:14.808Z,30.00
2018-08-06T09:32:44.838Z,30.30
2018-08-06T09:35:14.257Z,30.50
2018-08-06T09:37:42.873Z,30.20
2018-08-06T09:40:14.082Z,30.10
2018-08-06T09:42:43.220Z,29.90
2018-08-06T09:45:12.783Z,30.10
2018-08-06T09:47:42.481Z,30.50
2018-08-06T09:50:11.841Z,30.60
2018-08-06T09:52:41.037Z,30.40
2018-08-06T09:55:12.084Z,30.30
2018-08-06T09:57:40.948Z,30.10
2018-08-06T10:00:23.265Z,29.90
2018-08-06T10:02:52.321Z,29.70
2018-08-06T10:05:21.676Z,29.30
2018-08-06T10:07:50.369Z,29.10
2018-08-06T10:10:18.822Z,29.00
2018-08-06T10:12:47.634Z,29.10
2018-08-06T10:15:16.227Z,29.30
2018-08-06T10:17:45.617Z,29.20
2018-08-06T10:20:16.712Z,29.40
2018-08-06T10:22:45.278Z,29.70
2018-08-06T10:25:14.529Z,29.80
2018-08-06T10:27:43.923Z,29.60
2018-08-06T10:30:15.118Z,29.70
2018-08-06T10:32:43.831Z,29.80
2018-08-06T10:35:13.129Z,29.70
2018-08-06T10:37:41.638Z,29.80
2018-08-06T10:44:11.333Z,30.00
2018-08-06T10:49:08.954Z,30.10
2018-08-06T10:51:37.533Z,30.00
2018-08-06T10:54:05.921Z,29.60
2018-08-06T10:56:34.344Z,29.60
2018-08-06T10:59:02.974Z,29.40
2018-08-06T11:01:31.501Z,29.40
2018-08-06T11:03:59.918Z,29.60
2018-08-06T11:06:28.648Z,29.70
2018-08-06T11:08:57.179Z,29.50
2018-08-06T11:11:25.541Z,29.50
2018-08-06T11:13:54.164Z,29.40
2018-08-06T11:16:22.618Z,29.50
2018-08-06T11:18:50.991Z,29.60
2018-08-06T11:21:19.527Z,29.80
2018-08-06T11:23:47.917Z,29.80
2018-08-06T11:26:16.280Z,29.80
2018-08-06T11:28:45.090Z,29.90
2018-08-06T11:31:13.498Z,30.10
2018-08-06T11:33:41.919Z,30.10
2018-08-06T11:36:11.110Z,30.00
2018-08-06T11:38:39.671Z,29.80
2018-08-06T11:41:08.158Z,29.80
2018-08-06T11:43:36.544Z,29.80
2018-08-06T11:46:05.119Z,29.80
2018-08-06T11:48:33.506Z,29.80
2018-08-06T11:51:01.934Z,29.70
2018-08-06T11:53:30.529Z,29.80
2018-08-06T11:55:59.115Z,29.80
2018-08-06T11:58:27.489Z,29.90
2018-08-06T12:00:56.197Z,29.90
2018-08-06T12:03:24.568Z,30.00
2018-08-06T12:05:53.014Z,30.10
2018-08-06T12:08:21.624Z,30.20
2018-08-06T12:10:50.003Z,30.10
2018-08-06T12:13:18.413Z,30.10
2018-08-06T12:15:47.061Z,30.20
2018-08-06T12:18:15.519Z,30.10
2018-08-06T12:20:43.875Z,29.80
2018-08-06T12:23:12.514Z,29.70
2018-08-06T12:25:41.166Z,29.80
2018-08-06T12:28:09.572Z,29.80
2018-08-06T12:30:38.260Z,29.90
2018-08-06T12:33:06.721Z,29.80
2018-08-06T12:35:35.093Z,29.80
2018-08-06T12:38:03.561Z,29.90
2018-08-06T12:40:32.248Z,30.00
2018-08-06T12:43:00.668Z,30.10
2018-08-06T12:45:29.074Z,30.10
2018-08-06T12:47:57.675Z,30.10
2018-08-06T12:50:26.091Z,30.10
2018-08-06T12:52:54.407Z,29.90
2018-08-06T12:55:23.005Z,29.90
2018-08-06T12:57:51.470Z,29.70
2018-08-06T13:00:25.113Z,29.70
2018-08-06T13:02:53.820Z,29.80
2018-08-06T13:05:23.082Z,30.00
2018-08-06T13:07:52.189Z,30.10
2018-08-06T13:10:20.623Z,30.20
2018-08-06T13:12:49.388Z,30.30
2018-08-06T13:15:18.353Z,30.40
2018-08-06T13:17:46.808Z,30.50
2018-08-06T13:20:16.209Z,30.50
2018-08-06T13:22:44.708Z,30.50
2018-08-06T13:25:13.386Z,30.40
2018-08-06T13:27:42.092Z,30.30
2018-08-06T13:32:41.568Z,30.00
2018-08-06T13:35:10.288Z,30.10
2018-08-06T13:37:38.881Z,30.00
2018-08-06T13:42:36.051Z,29.90
2018-08-06T13:45:06.105Z,29.90
2018-08-06T13:47:34.765Z,30.00
2018-08-06T13:50:03.178Z,30.10
2018-08-06T13:52:31.643Z,30.20
2018-08-06T13:55:00.345Z,30.30
2018-08-06T13:57:28.743Z,30.10
2018-08-06T13:59:57.137Z,29.80
2018-08-06T14:02:26.014Z,30.00
2018-08-06T14:04:54.517Z,30.00
2018-08-06T14:07:22.954Z,30.10
2018-08-06T14:09:51.697Z,30.20
2018-08-06T14:12:20.117Z,30.20
2018-08-06T14:14:48.533Z,30.10
2018-08-06T14:17:17.196Z,30.10
2018-08-06T14:19:45.624Z,30.20
2018-08-06T14:22:14.066Z,30.30
2018-08-06T14:24:42.641Z,30.30
2018-08-06T14:27:11.721Z,30.40
2018-08-06T14:29:40.172Z,30.40
2018-08-06T14:32:08.858Z,30.50
2018-08-06T14:34:37.252Z,30.50
2018-08-06T14:37:05.823Z,30.50
2018-08-06T14:39:34.374Z,30.60
2018-08-06T14:42:02.790Z,30.50
2018-08-06T14:44:31.217Z,30.50
2018-08-06T14:46:59.918Z,30.50
2018-08-06T14:49:28.379Z,30.50
2018-08-06T14:51:56.805Z,30.50
2018-08-06T14:54:25.399Z,30.50
2018-08-06T14:56:53.849Z,30.50
2018-08-06T14:59:22.280Z,30.50
2018-08-06T15:01:50.917Z,30.50
2018-08-06T15:04:19.293Z,30.50
2018-08-06T15:06:47.797Z,30.50
2018-08-06T15:09:16.408Z,30.50
2018-08-06T15:11:44.855Z,30.40
2018-08-06T15:14:13.210Z,30.40
2018-08-06T15:19:10.264Z,30.20
2018-08-06T15:21:38.752Z,30.20
2018-08-06T15:24:07.341Z,30.20
2018-08-06T15:26:35.765Z,30.20
2018-08-06T15:29:04.589Z,30.10
2018-08-06T15:31:33.449Z,30.30
2018-08-06T15:34:01.976Z,30.30
2018-08-06T15:36:30.358Z,30.20
2018-08-06T15:38:59.000Z,30.20
2018-08-06T15:41:27.449Z,30.20
2018-08-06T15:46:24.261Z,30.30
2018-08-06T15:48:52.645Z,30.20
2018-08-06T15:51:21.108Z,30.20
2018-08-06T15:53:49.845Z,30.20
2018-08-06T15:56:18.346Z,30.20
2018-08-06T15:58:46.865Z,30.20
2018-08-06T16:01:15.549Z,30.20
2018-08-06T16:03:43.972Z,30.20
2018-08-06T16:06:12.305Z,30.10
2018-08-06T16:08:40.904Z,30.00
2018-08-06T16:11:09.563Z,29.90
2018-08-06T16:13:38.014Z,29.80
2018-08-06T16:16:06.608Z,29.80
2018-08-06T16:18:35.054Z,29.90
2018-08-06T16:21:03.477Z,30.00
2018-08-06T16:23:32.293Z,30.00
2018-08-06T16:26:00.817Z,30.00
2018-08-06T16:28:29.229Z,30.00
2018-08-06T16:30:57.876Z,30.00
2018-08-06T16:33:26.253Z,29.90
2018-08-06T16:35:54.818Z,29.90
2018-08-06T16:38:23.436Z,29.80
2018-08-06T16:40:51.849Z,29.80
2018-08-06T16:43:20.928Z,29.70
2018-08-06T16:45:49.628Z,29.70
2018-08-06T16:48:18.081Z,29.70
2018-08-06T16:50:46.673Z,29.60
2018-08-06T16:53:15.325Z,29.50
2018-08-06T16:55:43.857Z,29.50
2018-08-06T16:58:12.377Z,29.40
2018-08-06T17:00:40.984Z,29.40
2018-08-06T17:03:09.574Z,29.30
2018-08-06T17:05:38.009Z,29.30
2018-08-06T17:08:06.481Z,29.40
2018-08-06T17:10:35.185Z,29.50
2018-08-06T17:13:03.629Z,29.40
2018-08-06T17:15:32.054Z,29.40
2018-08-06T17:18:00.685Z,29.30
2018-08-06T17:20:29.181Z,29.20
2018-08-06T17:22:57.738Z,29.10
2018-08-06T17:25:26.505Z,29.40
2018-08-06T17:27:54.942Z,29.00
2018-08-06T17:30:23.378Z,28.90
2018-08-06T17:32:51.955Z,28.90
2018-08-06T17:35:20.320Z,28.80
2018-08-06T17:37:48.732Z,28.80
2018-08-06T17:40:18.529Z,28.80
2018-08-06T17:42:47.073Z,28.80
2018-08-06T17:45:17.853Z,28.70
2018-08-06T17:47:46.313Z,28.70
2018-08-06T17:50:16.475Z,28.60
2018-08-06T17:55:15.836Z,28.50
2018-08-06T17:57:44.236Z,28.50
2018-08-06T18:00:13.692Z,28.40
2018-08-06T18:02:42.730Z,28.30
2018-08-06T18:05:12.996Z,28.20
2018-08-06T18:07:42.274Z,28.10
2018-08-06T18:10:12.689Z,28.00
2018-08-06T18:12:41.515Z,28.00
2018-08-06T18:17:38.518Z,27.70
2018-08-06T18:20:10.433Z,27.70
2018-08-06T18:22:38.832Z,27.60
2018-08-06T18:25:09.561Z,27.60
2018-08-06T18:27:38.142Z,27.60
2018-08-06T18:30:10.668Z,27.40
2018-08-06T18:32:39.089Z,27.40
2018-08-06T18:35:08.388Z,27.40
2018-08-06T18:37:37.033Z,27.30
2018-08-06T18:40:05.598Z,27.30
2018-08-06T18:42:34.158Z,27.20
2018-08-06T18:45:02.641Z,27.20
2018-08-06T18:47:31.197Z,27.20
2018-08-06T18:49:59.806Z,27.10
2018-08-06T18:52:28.411Z,27.00
2018-08-06T18:54:56.785Z,26.90
2018-08-06T18:57:25.553Z,26.80
2018-08-06T18:59:53.981Z,26.70
2018-08-06T19:02:22.468Z,26.70
2018-08-06T19:04:51.942Z,26.60
2018-08-06T19:07:20.377Z,26.60
2018-08-06T19:09:49.256Z,26.60
2018-08-06T19:12:23.913Z,26.70
2018-08-06T19:14:52.611Z,26.70
2018-08-06T19:17:21.211Z,26.70
2018-08-06T19:19:50.292Z,26.70
2018-08-06T19:22:19.469Z,26.70
2018-08-06T19:24:53.752Z,26.60
2018-08-06T19:27:22.317Z,26.50
2018-08-06T19:29:51.021Z,26.50
2018-08-06T19:32:19.821Z,26.50
2018-08-06T19:34:48.381Z,26.40
2018-08-06T19:39:51.733Z,26.30
2018-08-06T19:42:21.237Z,26.30
2018-08-06T19:44:50.069Z,26.20
2018-08-06T19:47:18.868Z,26.20
2018-08-06T19:49:53.190Z,26.10
2018-08-06T19:52:22.232Z,26.10
2018-08-06T19:54:50.728Z,26.00
2018-08-06T19:57:19.796Z,25.90
2018-08-06T19:59:48.612Z,25.90
2018-08-06T20:02:17.621Z,25.80
2018-08-06T20:07:14.665Z,25.70
2018-08-06T20:09:43.337Z,25.60
2018-08-06T20:12:12.092Z,25.50
2018-08-06T20:14:40.525Z,25.50
2018-08-06T20:17:08.991Z,25.40
2018-08-06T20:19:37.629Z,25.40
2018-08-06T20:22:11.532Z,25.30
2018-08-06T20:24:40.137Z,25.20
2018-08-06T20:27:09.400Z,25.20
2018-08-06T20:29:37.810Z,25.10
2018-08-06T20:32:06.745Z,25.00
2018-08-06T20:34:35.470Z,25.00
2018-08-06T20:37:04.280Z,24.90
2018-08-06T20:39:32.743Z,24.90
2018-08-06T20:42:01.223Z,24.80
2018-08-06T20:44:29.936Z,24.80
2018-08-06T20:46:58.320Z,24.70
2018-08-06T20:49:26.732Z,24.60
2018-08-06T20:51:55.376Z,24.50
2018-08-06T20:54:23.809Z,24.50
2018-08-06T20:56:52.216Z,24.50
2018-08-06T20:59:20.821Z,24.40
2018-08-06T21:01:49.273Z,24.40
2018-08-06T21:04:17.649Z,24.40
2018-08-06T21:06:46.373Z,24.30
2018-08-06T21:09:14.810Z,24.30
2018-08-06T21:11:43.434Z,24.20
2018-08-06T21:14:11.929Z,24.20
2018-08-06T21:16:40.297Z,24.20
2018-08-06T21:21:37.013Z,24.20
2018-08-06T21:24:05.618Z,24.10
2018-08-06T21:26:34.061Z,24.10
2018-08-06T21:29:02.641Z,24.10
2018-08-06T21:31:31.076Z,24.00
2018-08-06T21:33:59.525Z,24.00
2018-08-06T21:36:27.941Z,24.00
2018-08-06T21:38:56.574Z,24.00
2018-08-06T21:41:24.938Z,23.90
2018-08-06T21:43:53.385Z,23.90
2018-08-06T21:46:21.804Z,23.90
2018-08-06T21:48:50.212Z,23.80
2018-08-06T21:51:18.688Z,23.80
2018-08-06T21:53:47.266Z,23.70
2018-08-06T21:56:15.717Z,23.70
2018-08-06T21:58:44.149Z,23.60
2018-08-06T22:01:13.728Z,23.60
2018-08-06T22:03:42.242Z,23.50
2018-08-06T22:06:10.733Z,23.50
2018-08-06T22:08:39.338Z,23.50
2018-08-06T22:11:08.062Z,23.50
2018-08-06T22:16:05.025Z,23.40
2018-08-06T22:18:33.513Z,23.40
2018-08-06T22:21:01.964Z,23.40
2018-08-06T22:23:30.678Z,23.40
2018-08-06T22:25:59.128Z,23.30
2018-08-06T22:28:27.540Z,23.30
2018-08-06T22:30:56.156Z,23.30
2018-08-06T22:33:24.537Z,23.30
2018-08-06T22:35:53.135Z,23.20
2018-08-06T22:38:21.718Z,23.20
2018-08-06T22:40:50.156Z,23.10
2018-08-06T22:43:18.610Z,23.10
2018-08-06T22:45:47.237Z,23.10
2018-08-06T22:48:15.709Z,23.10
2018-08-06T22:50:44.153Z,23.10
2018-08-06T22:53:12.817Z,23.10
2018-08-06T22:55:52.310Z,23.00
2018-08-06T22:58:20.897Z,23.00
2018-08-06T23:00:49.301Z,23.00
2018-08-06T23:03:17.762Z,23.00
2018-08-06T23:05:46.397Z,23.00
2018-08-06T23:08:14.813Z,22.90
2018-08-06T23:10:43.940Z,22.90
2018-08-06T23:13:12.572Z,22.90
2018-08-06T23:15:40.976Z,22.80
2018-08-06T23:18:09.386Z,22.80
2018-08-06T23:20:37.877Z,22.80
2018-08-06T23:23:06.425Z,22.80
2018-08-06T23:25:35.079Z,22.80
2018-08-06T23:28:03.454Z,22.90
2018-08-06T23:32:59.966Z,22.90
2018-08-06T23:35:28.562Z,22.90
2018-08-06T23:37:56.957Z,22.80
2018-08-06T23:40:25.381Z,22.80
2018-08-06T23:42:54.049Z,22.80
2018-08-06T23:45:22.425Z,22.80
2018-08-06T23:47:50.803Z,22.80
2018-08-06T23:50:19.517Z,22.80
2018-08-06T23:52:47.881Z,22.70
2018-08-06T23:55:17.533Z,22.70
2018-08-06T23:57:46.433Z,22.60
